createdAt,value
2022-12-05T05:29:28.261Z,62.02
2022-12-05T05:31:54.588Z,61.44
2022-12-05T05:34:20.965Z,61.13
2022-12-05T05:36:51.019Z,61.10
2022-12-05T05:39:17.386Z,60.36
2022-12-05T05:41:44.038Z,59.90
2022-12-05T05:44:10.584Z,59.49
2022-12-05T05:46:37.128Z,59.47
2022-12-05T05:49:04.142Z,59.56
2022-12-05T05:51:30.633Z,59.80
2022-12-05T05:53:57.343Z,59.61
2022-12-05T05:56:23.730Z,58.60
2022-12-05T05:58:57.019Z,58.00
2022-12-05T06:01:23.652Z,57.36
2022-12-05T06:03:50.969Z,57.04
2022-12-05T06:06:18.310Z,56.13
2022-12-05T06:08:45.042Z,55.70
2022-12-05T06:11:13.118Z,55.82
2022-12-05T06:13:39.676Z,55.32
2022-12-05T06:16:07.656Z,55.09
2022-12-05T06:18:34.195Z,55.32
2022-12-05T06:21:01.018Z,55.01
2022-12-05T06:23:27.523Z,54.88
2022-12-05T06:25:54.727Z,54.89
2022-12-05T06:28:22.044Z,54.92
2022-12-05T06:30:48.472Z,54.89
2022-12-05T06:33:15.018Z,55.05
2022-12-05T06:35:42.876Z,55.32
2022-12-05T06:38:09.908Z,55.30
2022-12-05T06:40:39.579Z,55.25
2022-12-05T06:43:05.928Z,55.21
2022-12-05T06:45:32.470Z,55.38
2022-12-05T06:47:58.939Z,55.18
2022-12-05T06:50:25.380Z,55.55
2022-12-05T06:52:51.727Z,55.28
2022-12-05T06:55:18.171Z,55.37
2022-12-05T06:57:45.328Z,55.72
2022-12-05T07:00:30.657Z,55.95
2022-12-05T07:02:57.124Z,55.95
2022-12-05T07:05:23.555Z,55.76
2022-12-05T07:07:50.010Z,55.71
2022-12-05T07:10:16.407Z,56.02
2022-12-05T07:12:42.785Z,55.88
2022-12-05T07:15:09.288Z,56.15
2022-12-05T07:17:36.359Z,56.12
2022-12-05T07:20:02.941Z,56.15
2022-12-05T07:22:29.392Z,56.05
2022-12-05T07:24:55.797Z,55.94
2022-12-05T07:27:27.334Z,56.36
2022-12-05T07:29:54.517Z,56.43
2022-12-05T07:32:21.156Z,56.47
2022-12-05T07:34:52.144Z,56.32
2022-12-05T07:37:21.224Z,56.33
2022-12-05T07:39:47.592Z,56.31
2022-12-05T07:42:13.962Z,56.41
2022-12-05T07:44:40.368Z,56.40
2022-12-05T07:47:06.712Z,56.72
2022-12-05T07:49:33.085Z,56.79
2022-12-05T07:51:59.470Z,56.46
2022-12-05T07:54:25.874Z,56.72
2022-12-05T07:56:52.233Z,56.66
2022-12-05T07:59:18.645Z,56.56
2022-12-05T08:01:45.095Z,56.70
2022-12-05T08:04:15.333Z,56.85
2022-12-05T08:06:42.335Z,56.73
2022-12-05T08:09:08.994Z,56.47
2022-12-05T08:11:36.257Z,56.80
2022-12-05T08:14:03.621Z,56.85
2022-12-05T08:16:30.604Z,56.50
2022-12-05T08:18:57.758Z,56.66
2022-12-05T08:21:25.326Z,56.78
2022-12-05T08:23:52.088Z,56.90
2022-12-05T08:26:20.631Z,56.58
2022-12-05T08:28:50.490Z,56.96
2022-12-05T08:31:17.937Z,56.86
2022-12-05T08:33:44.731Z,56.67
2022-12-05T08:36:12.483Z,56.72
2022-12-05T08:38:39.006Z,56.70
2022-12-05T08:41:06.606Z,57.06
2022-12-05T08:43:33.522Z,56.72
2022-12-05T08:46:00.339Z,57.09
2022-12-05T08:48:29.441Z,56.73
2022-12-05T08:50:56.194Z,57.07
2022-12-05T08:53:22.787Z,57.11
2022-12-05T08:55:49.107Z,56.85
2022-12-05T08:58:15.887Z,57.08
2022-12-05T09:00:42.716Z,56.73
2022-12-05T09:03:12.644Z,56.95
2022-12-05T09:05:39.468Z,57.16
2022-12-05T09:08:06.051Z,56.73
2022-12-05T09:10:32.523Z,57.16
2022-12-05T09:12:58.867Z,56.95
2022-12-05T09:15:25.346Z,57.07
2022-12-05T09:17:51.863Z,56.98
2022-12-05T09:20:18.376Z,56.94
2022-12-05T09:22:44.704Z,56.97
2022-12-05T09:25:11.075Z,57.06
2022-12-05T09:27:37.503Z,57.04
2022-12-05T09:30:04.551Z,57.13
2022-12-05T09:32:31.088Z,56.94
2022-12-05T09:34:57.681Z,57.08
2022-12-05T09:37:38.786Z,57.04
2022-12-05T09:40:06.745Z,57.17
2022-12-05T09:42:38.241Z,57.37
2022-12-05T09:45:17.662Z,57.29
2022-12-05T09:47:52.901Z,57.14
2022-12-05T09:50:22.431Z,57.38
2022-12-05T09:52:48.848Z,57.36
2022-12-05T09:55:17.412Z,57.08
2022-12-05T09:57:50.161Z,57.07
2022-12-05T10:00:16.867Z,57.31
2022-12-05T10:02:46.353Z,57.15
2022-12-05T10:05:22.369Z,57.29
2022-12-05T10:07:56.578Z,57.37
2022-12-05T10:10:23.052Z,57.34
2022-12-05T10:13:04.485Z,57.43
2022-12-05T10:15:31.067Z,57.44
2022-12-05T10:18:17.809Z,57.61
2022-12-05T10:20:52.798Z,57.42
2022-12-05T10:23:55.417Z,57.28
2022-12-05T10:26:12.700Z,57.62
2022-12-05T10:28:52.281Z,57.27
2022-12-05T10:31:22.622Z,57.24
2022-12-05T10:33:52.692Z,57.40
2022-12-05T10:36:19.105Z,57.59
2022-12-05T10:38:46.276Z,57.40
2022-12-05T10:41:13.865Z,57.16
2022-12-05T10:43:45.391Z,57.49
2022-12-05T10:46:16.989Z,57.18
2022-12-05T10:48:44.289Z,57.16
2022-12-05T10:51:15.026Z,57.18
2022-12-05T10:53:44.757Z,57.25
2022-12-05T10:56:31.000Z,57.60
2022-12-05T10:58:58.408Z,57.49
2022-12-05T11:01:26.218Z,57.34
2022-12-05T11:03:58.510Z,57.39
2022-12-05T11:06:31.903Z,57.41
2022-12-05T11:09:33.676Z,57.63
2022-12-05T11:12:02.893Z,57.81
2022-12-05T11:14:34.519Z,57.51
2022-12-05T11:17:01.567Z,57.86
2022-12-05T11:19:28.132Z,57.57
2022-12-05T11:21:55.318Z,57.85
2022-12-05T11:24:25.658Z,57.49
2022-12-05T11:26:52.154Z,57.66
2022-12-05T11:29:32.634Z,57.47
2022-12-05T11:31:59.114Z,57.50
2022-12-05T11:34:35.398Z,57.29
2022-12-05T11:37:06.634Z,57.35
2022-12-05T11:39:33.258Z,57.53
2022-12-05T11:42:05.698Z,57.41
2022-12-05T11:44:49.580Z,57.14
2022-12-05T11:47:34.306Z,57.42
2022-12-05T11:50:12.778Z,57.13
2022-12-05T11:52:40.972Z,57.41
2022-12-05T11:55:16.455Z,57.28
2022-12-05T11:58:01.958Z,57.37
2022-12-05T12:00:56.659Z,57.11
2022-12-05T12:03:37.432Z,57.48
2022-12-05T12:06:12.818Z,57.38
2022-12-05T12:08:48.598Z,57.58
2022-12-05T12:11:33.638Z,57.45
2022-12-05T12:14:05.715Z,57.42
2022-12-05T12:16:39.222Z,57.52
2022-12-05T12:19:12.971Z,57.48
2022-12-05T12:21:58.143Z,57.42
2022-12-05T12:24:34.295Z,57.44
2022-12-05T12:27:05.957Z,57.08
2022-12-05T12:29:45.057Z,57.13
2022-12-05T12:32:27.773Z,57.34
2022-12-05T12:35:06.139Z,57.02
2022-12-05T12:37:51.364Z,57.04
2022-12-05T12:40:20.858Z,57.28
2022-12-05T12:42:50.257Z,57.15
2022-12-05T12:45:21.102Z,57.13
2022-12-05T12:47:58.785Z,57.30
2022-12-05T12:50:26.724Z,57.41
2022-12-05T12:53:05.525Z,57.15
2022-12-05T12:55:44.939Z,57.00
2022-12-05T12:58:17.349Z,57.17
2022-12-05T13:00:46.745Z,57.31
2022-12-05T13:03:28.604Z,57.27
2022-12-05T13:06:04.980Z,56.97
2022-12-05T13:08:38.693Z,57.24
2022-12-05T13:11:07.542Z,57.05
2022-12-05T13:13:40.593Z,57.21
2022-12-05T13:16:08.222Z,57.03
2022-12-05T13:18:35.558Z,56.83
2022-12-05T13:21:03.765Z,56.99
2022-12-05T13:23:32.741Z,57.54
2022-12-05T13:26:00.335Z,59.31
2022-12-05T13:28:28.476Z,61.32
2022-12-05T13:30:58.067Z,62.49
2022-12-05T13:33:30.742Z,62.14
2022-12-05T13:36:21.580Z,61.44
2022-12-05T13:39:06.459Z,60.14
2022-12-05T13:41:58.842Z,59.11
2022-12-05T13:44:31.907Z,58.36
2022-12-05T13:46:58.295Z,57.83
2022-12-05T13:49:45.195Z,57.46
2022-12-05T13:52:19.821Z,56.73
2022-12-05T13:54:51.735Z,56.60
2022-12-05T13:57:36.918Z,56.41
2022-12-05T14:00:09.329Z,56.07
2022-12-05T14:02:41.983Z,56.14
2022-12-05T14:05:14.675Z,56.01
2022-12-05T14:07:44.408Z,55.81
2022-12-05T14:10:16.764Z,55.90
2022-12-05T14:12:59.467Z,55.76
2022-12-05T14:15:42.819Z,55.75
2022-12-05T14:18:17.074Z,55.93
2022-12-05T14:20:48.709Z,55.94
2022-12-05T14:23:39.794Z,56.00
2022-12-05T14:26:13.005Z,55.84
2022-12-05T14:28:58.240Z,56.10
2022-12-05T14:31:43.927Z,56.00
2022-12-05T14:34:18.452Z,56.13
2022-12-05T14:36:58.920Z,56.22
2022-12-05T14:39:37.623Z,56.24
2022-12-05T14:42:07.457Z,55.94
2022-12-05T14:44:34.259Z,56.08
2022-12-05T14:47:03.361Z,56.06
2022-12-05T14:49:48.686Z,56.40
2022-12-05T14:52:18.885Z,56.20
2022-12-05T14:54:45.402Z,56.26
2022-12-05T14:57:16.250Z,56.39
2022-12-05T14:59:52.677Z,56.26
2022-12-05T15:02:22.626Z,56.46
2022-12-05T15:05:10.979Z,56.48
2022-12-05T15:07:38.737Z,56.22
2022-12-05T15:10:08.280Z,56.48
2022-12-05T15:12:43.767Z,56.39
2022-12-05T15:15:17.288Z,56.61
2022-12-05T15:17:49.039Z,56.47
2022-12-05T15:20:24.287Z,56.74
2022-12-05T15:22:50.719Z,56.57
2022-12-05T15:25:24.411Z,56.59
2022-12-05T15:28:02.096Z,56.78
2022-12-05T15:30:29.371Z,56.82
2022-12-05T15:32:59.414Z,56.88
2022-12-05T15:35:27.439Z,56.84
2022-12-05T15:37:56.371Z,56.77
2022-12-05T15:40:23.612Z,56.74
2022-12-05T15:42:51.018Z,56.62
2022-12-05T15:45:21.743Z,56.80
2022-12-05T15:47:49.288Z,56.69
2022-12-05T15:50:17.159Z,56.85
2022-12-05T15:52:54.405Z,56.96
2022-12-05T15:55:27.345Z,56.94
2022-12-05T15:57:57.925Z,56.85
2022-12-05T16:00:26.117Z,56.71
2022-12-05T16:02:56.819Z,56.67
2022-12-05T16:05:52.648Z,57.01
2022-12-05T16:08:19.261Z,57.06
2022-12-05T16:10:45.759Z,56.94
2022-12-05T16:13:14.014Z,56.68
2022-12-05T16:15:46.460Z,56.63
2022-12-05T16:18:28.703Z,56.73
2022-12-05T16:20:55.303Z,56.79
2022-12-05T16:23:26.365Z,56.79
2022-12-05T16:25:52.820Z,56.66
2022-12-05T16:28:20.477Z,56.92
2022-12-05T16:31:17.656Z,57.10
2022-12-05T16:33:44.219Z,57.09
2022-12-05T16:36:11.604Z,56.81
2022-12-05T16:38:38.420Z,56.98
2022-12-05T16:41:06.184Z,57.07
2022-12-05T16:43:32.898Z,57.05
2022-12-05T16:46:08.752Z,57.16
2022-12-05T16:48:36.212Z,56.88
2022-12-05T16:51:16.433Z,57.06
2022-12-05T16:53:46.010Z,56.77
2022-12-05T16:56:15.403Z,56.87
2022-12-05T16:58:42.070Z,57.02
2022-12-05T17:01:15.113Z,57.02
2022-12-05T17:03:41.511Z,56.80
2022-12-05T17:06:08.027Z,56.83
2022-12-05T17:08:34.581Z,56.92
2022-12-05T17:11:03.480Z,57.18
2022-12-05T17:13:30.752Z,57.22
2022-12-05T17:15:57.155Z,56.94
2022-12-05T17:18:29.554Z,57.25
2022-12-05T17:21:00.027Z,57.21
2022-12-05T17:23:26.556Z,57.05
2022-12-05T17:25:57.275Z,56.87
2022-12-05T17:28:24.223Z,57.10
2022-12-05T17:30:50.706Z,56.91
2022-12-05T17:33:18.434Z,56.93
2022-12-05T17:35:45.106Z,57.24
2022-12-05T17:38:11.547Z,57.19
2022-12-05T17:40:38.503Z,56.97
2022-12-05T17:43:05.104Z,56.91
2022-12-05T17:45:31.765Z,56.86
2022-12-05T17:47:58.175Z,57.09
2022-12-05T17:50:24.987Z,57.00
2022-12-05T17:52:51.961Z,56.96
2022-12-05T17:57:55.609Z,57.26
2022-12-05T23:58:01.975Z,57.69
